LFATLFPV

Guest
Details From LFAT - Le Touquet Paris Plage
To LFPV - Velizy
Flight Number -
Tags generated
Created
Modified
Stats Distance 107 nm / 198 km
Max Altitude 8,700 ft / 2,652 m
Waypoints 3
Social Downloads 0
Likes 0
Share VATSIM

Download

Looking for another format? Having issues loading an existing format? Contact us
Advertisement - Login to hide

Notes

Basic altitude profile: - Ascent Rate: 2500ft/min - Ascent Speed: 250kts - Cruise Altitude: 35000ft - Cruise Speed: 420kts - Descent Rate: 1500ft/min - Descent Speed: 250kts Options: - Use NATs: yes - Use PACOTS: yes - Use low airways: yes - Use high airways: yes

Route

LFAT ABUDA LFPV

ID Type Via Altitude Latitude Longitude Leg Dist Tot Dist Heading (true) Name
O LFAT APT - 0 ft / 0 m 50.51586˚ 1.62273˚ - 0 nm - Le Touquet Paris Plage
ABUDA FIX - 8,700 ft / 2,652 m 50.11639˚ 1.75750˚ 24 nm 24 nm 168° / 168° -
O LFPV APT - 0 ft / 0 m 48.77437˚ 2.20161˚ 82 nm 106 nm 168° / 168° Velizy

Altitude Profile

Advertisement - Login to hide

LFAT

Details ICAO LFAT (LTQ)
Name Le Touquet Paris Plage
Region France
Timezone Europe/Paris (UTC+1.0)
Stats Elevation 35 ft / 11 m (AMSL)
Location 50.515857° 1.622729°
Runways 2
Magnetic Variation 0.236° E

METAR

LFAT 172300Z AUTO 29012KT 260V320 9000 BKN008 OVC021 10/10 Q1020

Decode

TAF

Not found

Departure Runways

ID Width Length Bearing (true) Bearing (mag) Surface Threshold Offset Overrun Length
07 120 ft / 37 m 1,949 ft / 594 m 60.65° 60.41° Asphalt 0 ft / 0 m 0 ft / 0 m
14 131 ft / 40 m 6,050 ft / 1,844 m 133.54° 133.30° Asphalt 0 ft / 0 m 0 ft / 0 m
25 120 ft / 37 m 1,949 ft / 594 m 240.65° 240.41° Asphalt 750 ft / 229 m 0 ft / 0 m
32 131 ft / 40 m 6,050 ft / 1,844 m 313.56° 313.32° Asphalt 492 ft / 150 m 0 ft / 0 m

LFPV

Details ICAO LFPV
Name Velizy
Region France
Timezone Europe/Paris (UTC+1.0)
Stats Elevation 584 ft / 178 m (AMSL)
Location 48.774366° 2.201605°
Runways 1
Magnetic Variation 0.548° E

METAR

LFPV 172300Z AUTO 21006KT 2800 -RA BR OVC002 05/04 Q1024 TEMPO 3000 RA

Decode

TAF

TAF LFPV 172000Z 1721/1821 21010KT 6000 BKN004 OVC010 TEMPO 1721/1808 3000 RA OVC002 BECMG 1808/1810 35010KT BKN015

Decode

Destination Runways

ID Width Length Bearing (true) Bearing (mag) Surface Threshold Offset Overrun Length
09 148 ft / 45 m 5,932 ft / 1,808 m 88.30° 87.75° Asphalt 0 ft / 0 m 436 ft / 133 m
27 148 ft / 45 m 5,932 ft / 1,808 m 268.31° 267.76° Asphalt 0 ft / 0 m 0 ft / 0 m

Approach Navaids

Runway Type Ident Frequency Range Bearing (true) Bearing (mag) Slope Elevation
09 Localiser VVE 111.35 MHz 18 nm / 33 km 88.31° 87.76° - 584 ft / 178 m (AMSL)
09 Glidescope VVE 111.35 MHz 10 nm / 19 km 88.30° 87.76° 3.00° 584 ft / 178 m (AMSL)
09 DME VVE 111.35 MHz 18 nm / 33 km - - - 11 ft / 3 m (AMSL)
27 Localiser VVO 110.75 MHz 18 nm / 33 km 268.30° 267.75° - 581 ft / 177 m (AMSL)
27 Glidescope VVO 110.75 MHz 10 nm / 19 km 268.30° 267.76° 3.00° 584 ft / 178 m (AMSL)
27 DME VVO 110.75 MHz 18 nm / 33 km - - - 11 ft / 3 m (AMSL)